createdAt,value
2023-04-20T00:00:02.376Z,3.13
2023-04-20T00:03:02.130Z,4.40
2023-04-20T00:05:32.439Z,3.95
2023-04-20T00:08:01.452Z,3.70
2023-04-20T00:10:29.940Z,4.03
2023-04-20T00:12:59.167Z,3.60
2023-04-20T00:15:27.623Z,2.88
2023-04-20T00:17:56.662Z,2.90
2023-04-20T00:20:25.409Z,4.78
2023-04-20T00:22:54.263Z,4.20
2023-04-20T00:25:22.725Z,4.57
2023-04-20T00:27:51.608Z,7.15
2023-04-20T00:30:20.259Z,3.90
2023-04-20T00:32:49.147Z,2.88
2023-04-20T00:35:17.732Z,7.20
2023-04-20T00:37:46.602Z,4.55
2023-04-20T00:40:15.183Z,4.10
2023-04-20T00:42:44.050Z,5.95
2023-04-20T00:45:12.545Z,5.53
2023-04-20T00:47:41.631Z,3.58
2023-04-20T00:50:11.677Z,3.65
2023-04-20T00:52:41.309Z,4.47
2023-04-20T00:55:10.236Z,4.35
2023-04-20T00:57:40.499Z,6.20
2023-04-20T01:00:11.142Z,5.30
2023-04-20T01:02:40.156Z,3.83
2023-04-20T01:05:10.601Z,3.95
2023-04-20T01:07:39.521Z,4.38
2023-04-20T01:10:09.068Z,3.63
2023-04-20T01:12:41.411Z,3.65
2023-04-20T01:15:12.193Z,3.85
2023-04-20T01:17:42.322Z,4.55
2023-04-20T01:20:17.854Z,3.72
2023-04-20T01:22:51.536Z,3.17
2023-04-20T01:25:20.574Z,4.03
2023-04-20T01:27:49.449Z,3.28
2023-04-20T01:30:18.182Z,4.13
2023-04-20T01:32:47.395Z,2.60
2023-04-20T01:35:17.447Z,3.60
2023-04-20T01:37:47.481Z,2.90
2023-04-20T01:40:16.309Z,3.85
2023-04-20T01:42:45.242Z,3.15
2023-04-20T01:45:13.773Z,3.08
2023-04-20T01:47:42.737Z,2.35
2023-04-20T01:50:11.540Z,3.03
2023-04-20T01:52:40.408Z,5.22
2023-04-20T01:55:10.271Z,3.22
2023-04-20T01:57:39.330Z,5.53
2023-04-20T02:00:10.271Z,3.63
2023-04-20T02:02:46.530Z,3.95
2023-04-20T02:05:15.475Z,3.97
2023-04-20T02:07:44.392Z,7.07
2023-04-20T02:10:12.909Z,4.22
2023-04-20T02:12:48.171Z,4.25
2023-04-20T02:15:16.704Z,4.53
2023-04-20T02:17:45.616Z,4.18
2023-04-20T02:20:14.756Z,5.78
2023-04-20T02:22:43.738Z,3.75
2023-04-20T02:25:12.839Z,4.05
2023-04-20T02:27:41.790Z,3.70
2023-04-20T02:30:10.877Z,3.30
2023-04-20T02:32:40.074Z,6.38
2023-04-20T02:35:09.698Z,4.63
2023-04-20T02:37:38.533Z,3.63
2023-04-20T02:40:08.767Z,5.15
2023-04-20T02:42:37.711Z,3.45
2023-04-20T02:45:10.260Z,5.38
2023-04-20T02:47:39.777Z,4.53
2023-04-20T02:50:09.825Z,4.03
2023-04-20T02:52:56.791Z,5.60
2023-04-20T02:55:25.401Z,7.30
2023-04-20T02:57:56.799Z,4.53
2023-04-20T03:00:39.046Z,4.68
2023-04-20T03:03:11.436Z,6.45
2023-04-20T03:05:41.648Z,3.63
2023-04-20T03:08:10.847Z,5.40
2023-04-20T03:10:39.714Z,3.92
2023-04-20T03:13:18.055Z,4.47
2023-04-20T03:15:54.247Z,3.08
2023-04-20T03:18:43.705Z,5.20
2023-04-20T03:21:12.943Z,3.55
2023-04-20T03:23:41.908Z,3.38
2023-04-20T03:26:10.580Z,4.28
2023-04-20T03:28:57.190Z,3.15
2023-04-20T03:31:28.053Z,5.70
2023-04-20T03:33:59.157Z,3.30
2023-04-20T03:36:28.699Z,3.40
2023-04-20T03:38:58.687Z,4.53
2023-04-20T03:41:27.228Z,4.28
2023-04-20T03:43:57.560Z,3.63
2023-04-20T03:46:26.276Z,3.25
2023-04-20T03:48:55.159Z,4.25
2023-04-20T03:51:23.808Z,3.47
2023-04-20T03:53:52.882Z,3.35
2023-04-20T03:56:21.562Z,3.47
2023-04-20T03:58:51.429Z,5.20
2023-04-20T04:03:53.138Z,3.05
2023-04-20T04:06:22.034Z,2.90
2023-04-20T04:08:50.969Z,7.00
2023-04-20T04:11:20.208Z,3.97
2023-04-20T04:13:49.868Z,4.30
2023-04-20T04:16:18.842Z,4.68
2023-04-20T04:18:48.102Z,3.72
2023-04-20T04:21:16.552Z,4.30
2023-04-20T04:23:52.324Z,5.75
2023-04-20T04:26:35.705Z,3.95
2023-04-20T04:29:07.377Z,3.78
2023-04-20T04:31:36.247Z,3.72
2023-04-20T04:34:12.462Z,4.53
2023-04-20T04:36:46.248Z,3.65
2023-04-20T04:39:18.938Z,5.60
2023-04-20T04:41:58.038Z,4.30
2023-04-20T04:44:34.638Z,3.47
2023-04-20T04:47:05.735Z,4.65
2023-04-20T04:49:36.292Z,5.88
2023-04-20T04:52:04.927Z,4.00
2023-04-20T04:54:33.769Z,5.32
2023-04-20T04:57:02.838Z,5.93
2023-04-20T04:59:31.821Z,5.00
2023-04-20T05:02:00.332Z,4.32
2023-04-20T05:04:29.500Z,5.97
2023-04-20T05:06:58.267Z,6.22
2023-04-20T05:09:33.735Z,4.75
2023-04-20T05:12:02.908Z,3.78
2023-04-20T05:14:32.407Z,6.28
2023-04-20T05:17:01.316Z,4.85
2023-04-20T05:19:30.160Z,4.45
2023-04-20T05:21:58.731Z,4.10
2023-04-20T05:24:27.459Z,5.03
2023-04-20T05:26:56.576Z,5.60
2023-04-20T05:29:25.135Z,5.72
2023-04-20T05:31:53.911Z,3.92
2023-04-20T05:34:22.426Z,4.18
2023-04-20T05:36:52.310Z,4.90
2023-04-20T05:39:21.236Z,4.07
2023-04-20T05:41:50.100Z,3.60
2023-04-20T05:44:18.659Z,3.65
2023-04-20T05:46:47.625Z,4.53
2023-04-20T05:49:16.281Z,4.80
2023-04-20T05:51:45.168Z,4.40
2023-04-20T05:54:13.656Z,4.18
2023-04-20T05:56:42.444Z,3.88
2023-04-20T05:59:11.028Z,4.30
2023-04-20T06:01:39.838Z,4.18
2023-04-20T06:04:09.204Z,3.95
2023-04-20T06:06:38.627Z,2.97
2023-04-20T06:09:07.231Z,3.22
2023-04-20T06:11:36.455Z,3.95
2023-04-20T06:14:04.940Z,3.47
2023-04-20T06:16:33.869Z,3.45
2023-04-20T06:19:02.559Z,3.38
2023-04-20T06:21:33.312Z,3.90
2023-04-20T06:24:01.903Z,4.65
2023-04-20T06:26:30.980Z,2.42
2023-04-20T06:28:59.402Z,3.28
2023-04-20T06:31:28.340Z,7.65
2023-04-20T06:33:56.799Z,5.28
2023-04-20T06:36:26.056Z,3.95
2023-04-20T06:38:55.318Z,6.10
2023-04-20T06:41:24.318Z,4.97
2023-04-20T06:43:52.761Z,5.88
2023-04-20T06:46:21.692Z,6.90
2023-04-20T06:48:50.221Z,2.65
2023-04-20T06:51:18.987Z,10.20
2023-04-20T06:53:47.566Z,3.67
2023-04-20T06:56:16.399Z,3.00
2023-04-20T06:58:45.082Z,7.55
2023-04-20T07:01:13.946Z,3.65
2023-04-20T07:03:44.141Z,2.90
2023-04-20T07:06:13.249Z,7.75
2023-04-20T07:08:41.780Z,3.78
2023-04-20T07:11:10.707Z,2.72
2023-04-20T07:13:39.216Z,5.63
2023-04-20T07:16:08.820Z,9.57
2023-04-20T07:18:37.499Z,2.67
2023-04-20T07:21:06.401Z,2.83
2023-04-20T07:23:34.914Z,3.50
2023-04-20T07:26:03.672Z,4.78
2023-04-20T07:28:32.699Z,5.85
2023-04-20T07:31:01.511Z,2.38
2023-04-20T07:33:35.984Z,2.67
2023-04-20T07:36:07.233Z,3.85
2023-04-20T07:38:35.713Z,4.47
2023-04-20T07:41:04.491Z,6.55
2023-04-20T07:43:32.998Z,3.00
2023-04-20T07:46:02.174Z,6.47
2023-04-20T07:48:30.775Z,3.38
2023-04-20T07:50:59.954Z,3.67
2023-04-20T07:53:31.515Z,1.67
2023-04-20T07:56:00.315Z,6.28
2023-04-20T07:58:28.779Z,3.45
2023-04-20T08:00:57.790Z,3.80
2023-04-20T08:03:27.794Z,1.85
2023-04-20T08:05:56.797Z,1.50
2023-04-20T08:08:25.282Z,2.17
2023-04-20T08:10:54.155Z,2.78
2023-04-20T08:13:22.681Z,1.63
2023-04-20T08:15:51.443Z,3.67
2023-04-20T08:18:21.298Z,5.80
2023-04-20T08:20:51.839Z,4.10
2023-04-20T08:23:20.622Z,5.57
2023-04-20T08:25:49.438Z,4.53
2023-04-20T08:28:29.457Z,3.92
2023-04-20T08:31:02.344Z,4.43
2023-04-20T08:33:31.290Z,4.45
2023-04-20T08:36:00.140Z,4.78
2023-04-20T08:38:33.896Z,2.25
2023-04-20T08:41:03.395Z,2.92
2023-04-20T08:43:32.559Z,5.60
2023-04-20T08:46:04.610Z,2.03
2023-04-20T08:48:37.848Z,3.42
2023-04-20T08:51:06.813Z,4.10
2023-04-20T08:53:35.215Z,4.70
2023-04-20T08:56:04.405Z,5.10
2023-04-20T08:58:34.350Z,3.22
2023-04-20T09:01:03.219Z,5.40
2023-04-20T09:03:43.249Z,2.47
2023-04-20T09:06:17.343Z,2.53
2023-04-20T09:08:46.679Z,2.58
2023-04-20T09:11:22.802Z,5.55
2023-04-20T09:14:10.296Z,5.97
2023-04-20T09:16:52.826Z,5.70
2023-04-20T09:19:28.934Z,2.85
2023-04-20T09:22:00.004Z,4.20
2023-04-20T09:24:36.170Z,2.58
2023-04-20T09:27:19.001Z,5.72
2023-04-20T09:30:04.520Z,2.25
2023-04-20T09:32:34.199Z,4.03
2023-04-20T09:35:02.642Z,2.17
2023-04-20T09:37:31.490Z,4.28
2023-04-20T09:40:01.293Z,4.05
2023-04-20T09:42:30.168Z,2.17
2023-04-20T09:44:58.756Z,5.32
2023-04-20T09:47:30.298Z,1.95
2023-04-20T09:50:02.333Z,2.40
2023-04-20T09:52:37.040Z,2.88
2023-04-20T09:55:09.421Z,2.42
2023-04-20T09:57:39.011Z,2.17
2023-04-20T10:00:10.976Z,2.95
2023-04-20T10:02:40.597Z,3.00
2023-04-20T10:05:09.493Z,8.48
2023-04-20T10:07:38.334Z,2.05
2023-04-20T10:10:16.943Z,2.35
2023-04-20T10:12:57.071Z,3.70
2023-04-20T10:15:36.599Z,2.13
2023-04-20T10:18:24.748Z,4.43
2023-04-20T10:21:05.890Z,2.55
2023-04-20T10:23:34.961Z,5.55
2023-04-20T10:26:04.107Z,4.13
2023-04-20T10:28:42.159Z,4.15
2023-04-20T10:31:15.565Z,2.58
2023-04-20T10:33:55.810Z,2.78
2023-04-20T10:36:38.474Z,3.50
2023-04-20T10:39:19.598Z,5.72
2023-04-20T10:42:01.478Z,3.05
2023-04-20T10:44:35.621Z,5.53
2023-04-20T10:47:04.219Z,4.70
2023-04-20T10:49:33.144Z,4.35
2023-04-20T10:52:01.625Z,4.78
2023-04-20T10:54:40.226Z,2.88
2023-04-20T10:57:09.202Z,3.67
2023-04-20T10:59:39.459Z,6.30
2023-04-20T11:02:08.648Z,5.35
2023-04-20T11:04:37.560Z,7.15
2023-04-20T11:07:10.648Z,5.43
2023-04-20T11:09:39.994Z,10.07
2023-04-20T11:12:12.277Z,5.53
2023-04-20T11:15:03.168Z,4.88
2023-04-20T11:17:38.239Z,9.43
2023-04-20T11:20:12.888Z,5.57
2023-04-20T11:22:42.311Z,8.30
2023-04-20T11:25:13.349Z,5.10
2023-04-20T11:30:13.251Z,8.68
2023-04-20T11:32:42.060Z,8.30
2023-04-20T11:35:12.281Z,9.95
2023-04-20T11:37:51.717Z,6.55
2023-04-20T11:40:20.721Z,5.72
2023-04-20T11:42:49.172Z,8.50
2023-04-20T11:45:18.213Z,7.22
2023-04-20T11:47:47.484Z,7.28
2023-04-20T11:50:16.450Z,5.30
2023-04-20T11:52:45.036Z,6.03
2023-04-20T11:55:14.776Z,8.40
2023-04-20T11:57:43.572Z,5.38
2023-04-20T12:00:13.439Z,6.65
2023-04-20T12:02:44.483Z,5.35
2023-04-20T12:05:14.262Z,6.15
2023-04-20T12:07:44.005Z,6.53
2023-04-20T12:10:12.908Z,5.85
2023-04-20T12:12:42.293Z,6.80
2023-04-20T12:15:12.975Z,7.40
2023-04-20T12:17:41.441Z,5.65
2023-04-20T12:20:12.575Z,5.47
2023-04-20T12:22:41.399Z,6.95
2023-04-20T12:25:10.437Z,5.68
2023-04-20T12:27:38.959Z,5.50
2023-04-20T12:30:09.516Z,4.80
2023-04-20T12:32:37.965Z,6.75
2023-04-20T12:35:08.729Z,6.35
2023-04-20T12:37:37.161Z,6.25
2023-04-20T12:40:07.556Z,3.97
2023-04-20T12:42:36.184Z,3.45
2023-04-20T12:45:05.472Z,8.07
2023-04-20T12:47:33.981Z,8.55
2023-04-20T12:50:03.545Z,4.68
2023-04-20T12:52:32.032Z,6.07
2023-04-20T12:55:02.043Z,6.47
2023-04-20T12:57:30.439Z,6.07
2023-04-20T13:00:00.260Z,4.38
2023-04-20T13:02:29.115Z,5.93
2023-04-20T13:04:58.191Z,12.38
2023-04-20T13:07:28.261Z,41.25
2023-04-20T13:09:57.179Z,66.25
2023-04-20T13:12:25.641Z,73.85
2023-04-20T13:14:54.492Z,74.88
2023-04-20T13:17:23.026Z,70.88
2023-04-20T13:19:55.162Z,101.55
2023-04-20T13:22:23.721Z,93.55
2023-04-20T13:24:52.515Z,74.20
2023-04-20T13:27:21.046Z,68.80
2023-04-20T13:29:50.119Z,49.65
2023-04-20T13:32:18.732Z,55.50
2023-04-20T13:34:47.530Z,56.88
2023-04-20T13:37:15.981Z,40.85
2023-04-20T13:39:45.205Z,51.92
2023-04-20T13:42:13.698Z,35.63
2023-04-20T13:44:42.474Z,39.90
2023-04-20T13:47:10.929Z,31.13
2023-04-20T13:49:39.652Z,38.25
2023-04-20T13:52:08.153Z,35.22
2023-04-20T13:54:36.997Z,39.45
2023-04-20T13:57:05.558Z,39.83
2023-04-20T13:59:35.021Z,37.60
2023-04-20T14:02:03.748Z,39.10
2023-04-20T14:04:32.593Z,38.85
2023-04-20T14:07:01.149Z,33.10
2023-04-20T14:09:32.205Z,33.03
2023-04-20T14:12:01.792Z,27.13
2023-04-20T14:14:30.759Z,31.48
2023-04-20T14:16:59.198Z,28.33
2023-04-20T14:19:28.060Z,29.70
2023-04-20T14:21:56.500Z,26.15
2023-04-20T14:24:25.276Z,20.98
2023-04-20T14:26:54.426Z,25.20
2023-04-20T14:29:23.322Z,32.28
2023-04-20T14:31:51.829Z,23.55
2023-04-20T14:34:20.971Z,29.83
2023-04-20T14:36:49.406Z,22.65
2023-04-20T14:39:21.196Z,19.88
2023-04-20T14:41:49.872Z,18.10
2023-04-20T14:44:18.983Z,18.70
2023-04-20T14:46:47.715Z,19.88
2023-04-20T14:49:16.687Z,16.55
2023-04-20T14:51:45.154Z,27.70
2023-04-20T14:54:13.992Z,23.88
2023-04-20T14:56:42.473Z,18.58
2023-04-20T14:59:11.335Z,11.95
2023-04-20T15:01:43.387Z,16.38
2023-04-20T15:04:20.800Z,18.15
2023-04-20T15:06:49.499Z,12.60
2023-04-20T15:09:18.253Z,17.77
2023-04-20T15:11:46.682Z,15.02
2023-04-20T15:14:15.689Z,14.35
2023-04-20T15:16:44.459Z,7.70
2023-04-20T15:19:13.257Z,11.23
2023-04-20T15:21:42.765Z,12.48
2023-04-20T15:24:12.966Z,12.95
2023-04-20T15:26:41.987Z,9.18
2023-04-20T15:29:10.801Z,11.77
2023-04-20T15:31:40.651Z,20.23
2023-04-20T15:34:11.418Z,11.73
2023-04-20T15:36:39.996Z,9.95
2023-04-20T15:39:08.842Z,10.38
2023-04-20T15:41:37.514Z,9.48
2023-04-20T15:44:06.918Z,10.07
2023-04-20T15:46:37.064Z,12.95
2023-04-20T15:49:06.084Z,9.88
2023-04-20T15:51:34.593Z,9.88
2023-04-20T15:54:03.614Z,10.23
2023-04-20T15:56:32.287Z,6.90
2023-04-20T15:59:01.219Z,7.43
2023-04-20T16:01:29.797Z,8.45
2023-04-20T16:03:59.551Z,12.07
2023-04-20T16:06:28.303Z,8.13
2023-04-20T16:08:57.896Z,6.90
2023-04-20T16:11:26.616Z,5.28
2023-04-20T16:13:56.862Z,6.85
2023-04-20T16:16:25.884Z,12.45
2023-04-20T16:18:55.486Z,8.57
2023-04-20T16:21:24.057Z,10.80
2023-04-20T16:23:59.302Z,6.75
2023-04-20T16:26:27.904Z,7.03
2023-04-20T16:28:57.279Z,11.55
2023-04-20T16:31:27.233Z,5.53
2023-04-20T16:33:57.592Z,6.47
2023-04-20T16:36:27.293Z,8.63
2023-04-20T16:38:57.416Z,6.50
2023-04-20T16:41:27.328Z,5.85
2023-04-20T16:43:56.215Z,5.15
2023-04-20T16:46:24.890Z,4.85
2023-04-20T16:48:54.923Z,5.60
2023-04-20T16:51:23.530Z,5.15
2023-04-20T16:53:52.943Z,5.45
2023-04-20T16:56:21.597Z,6.50
2023-04-20T16:58:50.556Z,6.93
2023-04-20T17:01:19.342Z,6.55
2023-04-20T17:03:48.546Z,6.28
2023-04-20T17:06:17.335Z,4.78
2023-04-20T17:08:47.456Z,6.20
2023-04-20T17:11:16.986Z,4.60
2023-04-20T17:13:45.954Z,3.95
2023-04-20T17:16:14.629Z,9.00
2023-04-20T17:18:43.571Z,6.03
2023-04-20T17:21:12.186Z,6.25
2023-04-20T17:23:41.362Z,6.65
2023-04-20T17:26:09.955Z,4.05
2023-04-20T17:28:38.835Z,9.05
2023-04-20T17:31:07.437Z,7.85
2023-04-20T17:33:36.398Z,14.57
2023-04-20T17:36:05.228Z,5.88
2023-04-20T17:38:36.867Z,4.57
2023-04-20T17:41:05.671Z,4.70
2023-04-20T17:43:36.420Z,6.43
2023-04-20T17:46:05.094Z,6.28
2023-04-20T17:48:34.112Z,5.95
2023-04-20T17:51:02.740Z,5.20
2023-04-20T17:53:31.778Z,3.08
2023-04-20T17:56:00.406Z,5.25
2023-04-20T17:58:29.254Z,5.35
2023-04-20T18:00:57.832Z,5.05
2023-04-20T18:03:27.083Z,7.05
2023-04-20T18:05:55.797Z,6.88
2023-04-20T18:08:24.806Z,5.95
2023-04-20T18:10:53.394Z,4.57
2023-04-20T18:13:22.294Z,7.65
2023-04-20T18:15:50.987Z,4.55
2023-04-20T18:18:21.925Z,3.40
2023-04-20T18:20:51.045Z,5.60
2023-04-20T18:23:20.488Z,2.63
2023-04-20T18:25:49.423Z,8.30
2023-04-20T18:28:18.329Z,3.08
2023-04-20T18:30:46.881Z,4.00
2023-04-20T18:33:15.874Z,3.15
2023-04-20T18:35:45.440Z,4.78
2023-04-20T18:38:14.614Z,7.65
2023-04-20T18:40:43.127Z,3.42
2023-04-20T18:43:12.267Z,3.08
2023-04-20T18:45:41.116Z,4.80
2023-04-20T18:48:10.190Z,7.63
2023-04-20T18:50:38.684Z,8.43
2023-04-20T18:53:07.961Z,5.60
2023-04-20T18:55:37.936Z,5.75
2023-04-20T18:58:06.906Z,5.18
2023-04-20T19:00:35.531Z,6.82
2023-04-20T19:03:05.943Z,4.93
2023-04-20T19:05:34.949Z,3.55
2023-04-20T19:08:04.059Z,5.22
2023-04-20T19:10:32.635Z,3.92
2023-04-20T19:13:01.885Z,7.20
2023-04-20T19:15:30.547Z,4.55
2023-04-20T19:17:59.484Z,3.78
2023-04-20T19:20:28.027Z,4.80
2023-04-20T19:22:56.945Z,3.78
2023-04-20T19:25:25.807Z,4.03
2023-04-20T19:27:55.057Z,5.20
2023-04-20T19:30:23.726Z,4.22
2023-04-20T19:32:52.715Z,5.15
2023-04-20T19:35:21.383Z,7.20
2023-04-20T19:37:50.083Z,6.32
2023-04-20T19:40:21.888Z,4.80
2023-04-20T19:42:51.045Z,5.83
2023-04-20T19:45:19.597Z,5.15
2023-04-20T19:47:48.399Z,5.47
2023-04-20T19:50:17.110Z,4.30
2023-04-20T19:52:45.997Z,3.95
2023-04-20T19:55:15.512Z,5.53
2023-04-20T19:57:44.341Z,10.95
2023-04-20T20:00:13.615Z,5.45
2023-04-20T20:02:44.156Z,5.50
2023-04-20T20:05:12.689Z,5.50
2023-04-20T20:07:41.407Z,4.85
2023-04-20T20:10:09.850Z,6.38
2023-04-20T20:12:39.748Z,7.47
2023-04-20T20:15:08.650Z,4.35
2023-04-20T20:17:37.438Z,3.45
2023-04-20T20:20:06.824Z,3.83
2023-04-20T20:22:35.727Z,5.72
2023-04-20T20:25:04.349Z,3.50
2023-04-20T20:27:33.078Z,4.55
2023-04-20T20:30:01.475Z,5.10
2023-04-20T20:32:31.471Z,4.25
2023-04-20T20:35:01.002Z,4.45
2023-04-20T20:37:34.887Z,7.43
2023-04-20T20:40:06.176Z,14.13
2023-04-20T20:42:35.079Z,6.60
2023-04-20T20:45:04.244Z,12.77
2023-04-20T20:47:34.347Z,5.88
2023-04-20T20:50:02.730Z,4.97
2023-04-20T20:52:31.519Z,3.08
2023-04-20T20:55:00.034Z,4.75
2023-04-20T20:57:28.772Z,4.30
2023-04-20T20:59:57.240Z,8.50
2023-04-20T21:02:26.245Z,6.68
2023-04-20T21:04:54.882Z,4.68
2023-04-20T21:07:23.846Z,5.82
2023-04-20T21:09:52.258Z,4.90
2023-04-20T21:12:21.217Z,10.77
2023-04-20T21:14:51.554Z,4.93
2023-04-20T21:17:20.602Z,6.25
2023-04-20T21:19:49.001Z,8.38
2023-04-20T21:22:17.787Z,4.30
2023-04-20T21:24:46.196Z,3.67
2023-04-20T21:27:14.916Z,5.78
2023-04-20T21:29:43.369Z,5.95
2023-04-20T21:32:12.338Z,4.00
2023-04-20T21:34:40.878Z,6.88
2023-04-20T21:37:09.600Z,3.92
2023-04-20T21:39:38.030Z,6.25
2023-04-20T21:42:08.832Z,3.80
2023-04-20T21:44:38.211Z,4.82
2023-04-20T21:47:07.046Z,4.88
2023-04-20T21:49:35.448Z,4.32
2023-04-20T21:52:04.411Z,3.47
2023-04-20T21:54:34.605Z,6.78
2023-04-20T21:57:03.912Z,6.05
2023-04-20T21:59:32.374Z,8.77
2023-04-20T22:02:01.289Z,5.75
2023-04-20T22:04:29.944Z,9.55
2023-04-20T22:06:58.886Z,6.97
2023-04-20T22:09:27.390Z,10.38
2023-04-20T22:11:57.868Z,6.53
2023-04-20T22:14:26.528Z,10.20
2023-04-20T22:16:55.306Z,10.40
2023-04-20T22:19:23.779Z,6.75
2023-04-20T22:21:52.666Z,6.25
2023-04-20T22:24:21.167Z,9.48
2023-04-20T22:26:50.282Z,10.60
2023-04-20T22:29:18.986Z,9.98
2023-04-20T22:31:48.476Z,9.48
2023-04-20T22:34:17.036Z,10.07
2023-04-20T22:36:46.316Z,7.07
2023-04-20T22:39:15.008Z,11.43
2023-04-20T22:41:43.828Z,7.80
2023-04-20T22:44:12.337Z,9.27
2023-04-20T22:46:41.153Z,9.65
2023-04-20T22:49:09.682Z,7.55
2023-04-20T22:51:38.469Z,11.27
2023-04-20T22:54:06.997Z,14.10
2023-04-20T22:56:36.401Z,9.77
2023-04-20T22:59:04.856Z,8.40
2023-04-20T23:01:33.692Z,11.48
2023-04-20T23:04:02.359Z,8.45
2023-04-20T23:06:31.828Z,8.38
2023-04-20T23:09:00.812Z,9.43
2023-04-20T23:11:30.099Z,11.48
2023-04-20T23:13:58.634Z,6.53
2023-04-20T23:16:28.552Z,7.65
2023-04-20T23:18:57.065Z,7.72
2023-04-20T23:21:27.718Z,8.90
2023-04-20T23:23:58.060Z,8.13
2023-04-20T23:26:26.968Z,7.10
2023-04-20T23:28:55.524Z,8.00
2023-04-20T23:31:24.916Z,7.78
2023-04-20T23:33:53.605Z,11.45
2023-04-20T23:36:22.472Z,7.78
2023-04-20T23:38:51.037Z,6.68
2023-04-20T23:41:19.953Z,6.07
2023-04-20T23:43:48.404Z,7.43
2023-04-20T23:46:18.683Z,8.07
2023-04-20T23:48:47.268Z,6.05
2023-04-20T23:51:16.236Z,6.30
2023-04-20T23:53:44.746Z,7.28
2023-04-20T23:56:13.955Z,10.32
2023-04-20T23:58:42.437Z,6.70
